Time;durP1;ratioP1;P1;durP2;ratioP2;P2;SDS_P1;SDS_P2;PMS_P1;PMS_P2;Temp;Humidity;BMP_temperature;BMP_pressure;BME280_temperature;BME280_humidity;BME280_pressure;Samples;Min_cycle;Max_cycle;Signal;HPM_P1;HPM_P2
2022/11/04 00:01:21;;;;;;;14.18;4.53;;;;;;;8.96;100.00;101226.22;5032314;28;20017;-68
2022/11/04 00:03:46;;;;;;;17.75;4.60;;;;;;;8.97;100.00;101222.56;5030972;28;20034;-68
2022/11/04 00:06:12;;;;;;;19.05;4.90;;;;;;;8.93;100.00;101224.59;5032078;28;20461;-67
2022/11/04 00:08:37;;;;;;;21.60;7.60;;;;;;;8.87;100.00;101229.50;5032093;28;20100;-66
2022/11/04 00:13:48;;;;;;;13.07;5.23;;;;;;;8.86;100.00;101225.09;5031952;28;20052;-68
2022/11/04 00:19:01;;;;;;;14.32;4.65;;;;;;;8.85;100.00;101224.22;5032160;28;20040;-67
2022/11/04 00:29:41;;;;;;;22.10;4.57;;;;;;;8.85;100.00;101218.00;5031766;28;20040;-67
2022/11/04 00:34:51;;;;;;;17.87;5.17;;;;;;;8.82;100.00;101228.94;5031759;28;20064;-67
2022/11/04 00:37:17;;;;;;;19.42;6.13;;;;;;;8.77;100.00;101220.34;5031744;28;20295;-69
2022/11/04 00:39:42;;;;;;;15.70;6.30;;;;;;;8.71;100.00;101222.44;5032045;28;20501;-69
2022/11/04 00:42:09;;;;;;;25.13;7.85;;;;;;;8.69;100.00;101218.16;5031828;28;20391;-66
2022/11/04 00:44:35;;;;;;;17.42;7.05;;;;;;;8.78;100.00;101222.06;5030612;28;20075;-67
2022/11/04 00:47:00;;;;;;;18.05;6.35;;;;;;;8.71;100.00;101217.09;5030120;28;20415;-68
2022/11/04 00:49:30;;;;;;;24.83;7.03;;;;;;;8.66;100.00;101211.16;5030206;28;20608;-68
2022/11/04 00:51:55;;;;;;;18.33;6.57;;;;;;;8.67;100.00;101215.56;5030495;28;20041;-67
2022/11/04 00:54:21;;;;;;;17.60;6.57;;;;;;;8.66;100.00;101223.72;5031631;28;20021;-68
2022/11/04 00:56:47;;;;;;;24.02;5.32;;;;;;;8.73;100.00;101222.34;5031730;28;20068;-68
2022/11/04 00:59:13;;;;;;;19.23;5.28;;;;;;;8.83;100.00;101215.44;5030183;28;20405;-66
2022/11/04 01:01:40;;;;;;;13.25;4.38;;;;;;;8.94;100.00;101212.91;5031845;28;20550;-66
2022/11/04 01:04:05;;;;;;;16.63;5.18;;;;;;;9.05;100.00;101222.91;5033041;28;20029;-67
2022/11/04 01:06:35;;;;;;;14.13;3.28;;;;;;;9.06;100.00;101213.91;5034181;28;20422;-67
2022/11/04 01:09:05;;;;;;;14.15;4.53;;;;;;;8.97;100.00;101211.84;5035337;28;20478;-68
2022/11/04 01:11:30;;;;;;;14.02;3.53;;;;;;;8.90;100.00;101210.50;5035303;28;20029;-67
2022/11/04 01:13:57;;;;;;;18.95;4.82;;;;;;;8.94;100.00;101212.06;5035539;28;20474;-69
2022/11/04 01:16:23;;;;;;;17.67;4.35;;;;;;;8.88;100.00;101207.94;5034149;28;20034;-68
2022/11/04 01:18:49;;;;;;;14.18;4.85;;;;;;;8.92;100.00;101208.63;5035621;28;20025;-68
2022/11/04 01:21:16;;;;;;;15.68;5.30;;;;;;;8.91;100.00;101213.13;5034088;28;20131;-67
2022/11/04 01:23:43;;;;;;;17.88;3.95;;;;;;;9.00;100.00;101209.81;5034023;28;20033;-69
2022/11/04 01:26:20;;;;;;;7.85;3.15;;;;;;;9.08;100.00;101220.06;5035182;28;20032;-66
2022/11/04 01:28:46;;;;;;;17.77;4.30;;;;;;;9.07;100.00;101212.97;5033929;28;20025;-66
2022/11/04 01:31:15;;;;;;;15.65;4.88;;;;;;;9.15;100.00;101216.00;5035066;28;20128;-67
2022/11/04 01:33:41;;;;;;;12.68;3.58;;;;;;;9.05;100.00;101212.19;5035161;28;20437;-67
2022/11/04 01:36:09;;;;;;;10.90;4.18;;;;;;;9.04;100.00;101218.50;5035100;28;20061;-66
2022/11/04 01:38:35;;;;;;;16.85;5.00;;;;;;;8.98;100.00;101210.88;5035213;28;20029;-67
2022/11/04 01:41:01;;;;;;;16.50;4.60;;;;;;;8.97;100.00;101206.50;5033556;28;20025;-68
2022/11/04 01:43:52;;;;;;;11.95;4.00;;;;;;;8.96;100.00;101205.63;5034858;28;20041;-66
2022/11/04 01:46:41;;;;;;;14.60;4.55;;;;;;;8.91;100.00;101201.53;5035077;28;20490;-67
2022/11/04 01:49:22;;;;;;;9.68;3.58;;;;;;;8.98;100.00;101213.56;5033301;28;20076;-68
2022/11/04 01:51:52;;;;;;;15.30;4.00;;;;;;;8.94;100.00;101206.69;5033339;28;20026;-67
2022/11/04 01:54:19;;;;;;;19.15;3.97;;;;;;;9.01;100.00;101208.84;5034782;28;20041;-68
2022/11/04 01:56:47;;;;;;;16.15;3.38;;;;;;;9.09;100.00;101216.41;5034734;28;20137;-67
2022/11/04 01:59:23;;;;;;;21.35;4.35;;;;;;;9.03;100.00;101216.78;5034660;28;20132;-67
2022/11/04 02:01:49;;;;;;;9.27;3.05;;;;;;;9.11;100.00;101214.47;5033302;28;20026;-68
2022/11/04 02:04:24;;;;;;;12.82;3.72;;;;;;;9.03;100.00;101214.13;5034783;28;20051;-67
2022/11/04 02:06:53;;;;;;;15.18;5.15;;;;;;;8.97;100.00;101211.84;5034324;28;20438;-68
2022/11/04 02:09:19;;;;;;;15.75;4.47;;;;;;;8.81;100.00;101208.47;5032881;28;20046;-68
2022/11/04 02:14:31;;;;;;;11.80;4.18;;;;;;;8.69;100.00;101213.66;5032941;28;20547;-68
2022/11/04 02:17:08;;;;;;;16.83;4.97;;;;;;;8.60;100.00;101219.63;5034142;28;20034;-68
2022/11/04 02:20:16;;;;;;;14.80;5.20;;;;;;;8.53;100.00;101218.28;5032720;28;20113;-68
2022/11/04 02:22:47;;;;;;;24.00;5.80;;;;;;;8.44;100.00;101202.81;5029394;28;20053;-69
2022/11/04 02:25:31;;;;;;;17.58;5.78;;;;;;;8.41;100.00;101208.38;5033813;28;20116;-69
2022/11/04 02:28:40;;;;;;;18.55;5.40;;;;;;;8.37;100.00;101207.69;5034436;28;20486;-66
2022/11/04 02:31:30;;;;;;;18.55;5.82;;;;;;;8.31;100.00;101197.34;5032517;28;20045;-68
2022/11/04 02:34:06;;;;;;;23.08;6.10;;;;;;;8.18;100.00;101208.91;5032745;28;20029;-67
2022/11/04 02:36:45;;;;;;;22.20;7.28;;;;;;;8.28;100.00;101207.38;5032610;28;20185;-68
2022/11/04 02:39:48;;;;;;;23.63;5.32;;;;;;;8.28;100.00;101208.25;5033776;28;20025;-68
2022/11/04 02:42:23;;;;;;;22.33;5.85;;;;;;;8.24;100.00;101205.88;5032789;28;20137;-68
2022/11/04 02:44:53;;;;;;;30.17;6.90;;;;;;;8.26;100.00;101204.81;5032485;28;20123;-68
2022/11/04 02:47:25;;;;;;;19.48;6.05;;;;;;;8.22;100.00;101205.94;5032068;28;20179;-70
2022/11/04 02:49:58;;;;;;;19.02;6.88;;;;;;;8.21;100.00;101204.22;5032359;28;20022;-68
2022/11/04 02:52:29;;;;;;;19.00;7.18;;;;;;;8.05;100.00;101207.00;5033213;28;20086;-67
2022/11/04 02:55:02;;;;;;;17.83;6.00;;;;;;;8.07;100.00;101198.91;5032172;28;20022;-67
2022/11/04 02:57:31;;;;;;;30.25;6.70;;;;;;;8.07;100.00;101207.78;5033266;28;20025;-67
2022/11/04 03:00:02;;;;;;;15.75;6.10;;;;;;;8.15;100.00;101202.81;5033500;28;20022;-68
2022/11/04 03:02:39;;;;;;;18.95;6.05;;;;;;;8.37;100.00;101196.09;5033501;28;20117;-68
2022/11/04 03:05:10;;;;;;;24.25;6.10;;;;;;;8.37;100.00;101196.09;5032051;28;20025;-68
2022/11/04 03:07:40;;;;;;;13.80;4.25;;;;;;;8.41;100.00;101192.28;5032056;28;20505;-67
2022/11/04 03:10:13;;;;;;;13.25;4.40;;;;;;;8.57;100.00;101203.75;5032108;28;20021;-67
2022/11/04 03:12:44;;;;;;;12.45;4.30;;;;;;;8.66;100.00;101195.09;5031732;28;20025;-67
2022/11/04 03:15:17;;;;;;;23.85;4.72;;;;;;;8.76;100.00;101190.00;5032928;28;20028;-67
2022/11/04 03:17:55;;;;;;;18.35;4.38;;;;;;;8.89;100.00;101193.56;5033334;28;20064;-68
2022/11/04 03:20:26;;;;;;;20.98;4.28;;;;;;;8.71;100.00;101189.41;5033321;28;20037;-67
2022/11/04 03:22:54;;;;;;;17.73;4.28;;;;;;;8.81;100.00;101184.31;5033126;28;20040;-68
2022/11/04 03:25:26;;;;;;;16.02;4.93;;;;;;;8.75;100.00;101190.97;5032716;28;20025;-68
2022/11/04 03:28:04;;;;;;;15.70;4.75;;;;;;;8.60;100.00;101186.59;5032897;28;20063;-69
2022/11/04 03:30:38;;;;;;;14.45;4.68;;;;;;;8.53;100.00;101185.25;5032897;28;20095;-67
2022/11/04 03:33:16;;;;;;;17.98;5.57;;;;;;;8.46;100.00;101194.66;5031572;28;20036;-68
2022/11/04 03:35:42;;;;;;;18.30;5.10;;;;;;;8.42;100.00;101189.50;5031718;28;20498;-67
2022/11/04 03:38:08;;;;;;;26.85;5.28;;;;;;;8.50;100.00;101191.69;5031389;28;20033;-68
2022/11/04 03:40:34;;;;;;;18.38;4.68;;;;;;;8.46;100.00;101184.81;5031777;28;20021;-67
2022/11/04 03:43:13;;;;;;;20.20;5.20;;;;;;;8.46;100.00;101190.16;5032402;28;20037;-69
2022/11/04 03:45:41;;;;;;;20.63;4.22;;;;;;;8.57;100.00;101197.53;5032896;28;20103;-67
2022/11/04 03:48:07;;;;;;;16.63;5.07;;;;;;;8.50;100.00;101190.81;5032519;28;20033;-69
2022/11/04 03:50:42;;;;;;;15.82;5.43;;;;;;;8.56;100.00;101198.47;5032449;28;20383;-67
2022/11/04 03:53:10;;;;;;;13.10;4.63;;;;;;;8.47;100.00;101185.66;5031139;28;20490;-68
2022/11/04 03:56:01;;;;;;;22.50;4.57;;;;;;;8.38;100.00;101187.09;5032270;28;20071;-68
2022/11/04 03:58:49;;;;;;;19.20;4.75;;;;;;;8.38;100.00;101187.09;5031161;28;20029;-68
2022/11/04 04:01:18;;;;;;;19.15;4.72;;;;;;;8.31;100.00;101185.75;5020625;28;20482;-66
2022/11/04 04:03:53;;;;;;;22.52;5.25;;;;;;;8.31;100.00;101180.41;5031143;28;20061;-67
2022/11/04 04:06:21;;;;;;;;;;;;;;;8.33;100.00;101183.84;5032669;28;20041;-67
2022/11/04 04:08:57;;;;;;;18.42;5.10;;;;;;;8.41;100.00;101187.78;5032246;28;19913;-68
2022/11/04 04:11:38;;;;;;;20.88;4.63;;;;;;;8.45;100.00;101188.44;5032290;28;20063;-67
2022/11/04 04:14:38;;;;;;;22.85;4.25;;;;;;;8.51;100.00;101185.38;5032382;28;20037;-68
2022/11/04 04:17:31;;;;;;;12.80;3.72;;;;;;;8.51;100.00;101187.19;5032058;28;20037;-68
2022/11/04 04:20:02;;;;;;;18.35;4.25;;;;;;;8.50;100.00;101197.03;5031005;28;20372;-66
2022/11/04 04:22:32;;;;;;;15.68;4.28;;;;;;;8.63;100.00;101189.94;5030895;28;20034;-69
2022/11/04 04:27:48;;;;;;;9.27;2.60;;;;;;;8.61;100.00;101183.81;5031957;28;20417;-67
2022/11/04 04:30:16;;;;;;;23.80;4.85;;;;;;;8.64;100.00;101191.66;5032127;28;20026;-66
2022/11/04 04:33:05;;;;;;;18.05;4.57;;;;;;;8.51;100.00;101192.53;5030938;28;20033;-66
2022/11/04 04:35:50;;;;;;;19.60;3.90;;;;;;;8.52;100.00;101189.75;5031965;28;20057;-67
2022/11/04 04:46:51;;;;;;;16.05;3.35;;;;;;;8.71;100.00;101195.63;5035838;28;20129;-66
2022/11/04 04:49:16;;;;;;;16.58;4.60;;;;;;;8.79;100.00;101202.34;5034526;28;20037;-68
2022/11/04 04:51:46;;;;;;;14.25;3.88;;;;;;;8.80;100.00;101194.19;5034583;28;20497;-69
2022/11/04 04:54:12;;;;;;;20.88;4.25;;;;;;;8.83;100.00;101193.97;5036156;28;20029;-68
2022/11/04 04:56:38;;;;;;;16.10;4.40;;;;;;;8.79;100.00;101192.47;5034359;28;20049;-67
2022/11/04 04:59:03;;;;;;;18.17;3.70;;;;;;;8.67;100.00;101188.75;5035318;28;20080;-67
2022/11/04 05:01:29;;;;;;;15.30;3.95;;;;;;;8.71;100.00;101190.28;5035456;28;20033;-66
2022/11/04 05:03:55;;;;;;;22.23;4.65;;;;;;;8.72;100.00;101197.34;5033637;28;20037;-67
2022/11/04 05:06:20;;;;;;;12.02;3.40;;;;;;;8.77;100.00;101190.88;5034137;28;20033;-67
2022/11/04 05:08:46;;;;;;;14.60;3.80;;;;;;;8.71;100.00;101179.56;5035765;28;20486;-66
2022/11/04 05:11:12;;;;;;;11.48;4.00;;;;;;;8.74;100.00;101187.41;5033893;28;20029;-66
2022/11/04 05:13:37;;;;;;;17.65;4.03;;;;;;;8.76;100.00;101181.09;5035811;28;20462;-66
2022/11/04 05:16:08;;;;;;;11.45;3.85;;;;;;;8.77;100.00;101193.53;5035172;28;20029;-68
2022/11/04 05:18:34;;;;;;;13.27;3.35;;;;;;;8.81;100.00;101195.06;5033977;28;20485;-67
2022/11/04 05:21:05;;;;;;;19.10;3.45;;;;;;;8.77;100.00;101197.09;5034921;28;20080;-67
2022/11/04 05:23:30;;;;;;;24.08;3.17;;;;;;;8.80;100.00;101193.34;5035077;28;20091;-66
2022/11/04 05:25:57;;;;;;;10.27;3.08;;;;;;;8.67;100.00;101187.91;5035066;28;20037;-68
2022/11/04 05:28:23;;;;;;;14.15;3.13;;;;;;;8.57;100.00;101195.72;5033889;28;20025;-68
2022/11/04 05:30:49;;;;;;;17.73;4.13;;;;;;;8.55;100.00;101189.56;5035251;28;20108;-66
2022/11/04 05:33:14;;;;;;;18.38;3.92;;;;;;;8.53;100.00;101195.97;5033435;28;20220;-67
2022/11/04 05:35:40;;;;;;;22.05;3.80;;;;;;;8.46;100.00;101195.53;5033419;28;20406;-67
2022/11/04 05:38:05;;;;;;;13.73;3.17;;;;;;;8.47;100.00;101196.38;5034748;28;20033;-67
2022/11/04 05:40:31;;;;;;;12.85;4.40;;;;;;;8.37;100.00;101196.09;5034398;28;20109;-67
2022/11/04 05:42:58;;;;;;;18.30;4.03;;;;;;;8.32;100.00;101192.84;5034444;28;20041;-68
2022/11/04 05:45:25;;;;;;;19.38;3.38;;;;;;;8.26;100.00;101188.75;5033524;28;20021;-66
2022/11/04 05:48:01;;;;;;;21.75;4.13;;;;;;;8.30;100.00;101194.75;5033094;28;20034;-66
2022/11/04 05:50:29;;;;;;;21.92;3.88;;;;;;;8.22;100.00;101183.66;5034554;28;20038;-65
2022/11/04 05:52:58;;;;;;;11.73;3.10;;;;;;;8.24;100.00;101196.00;5033140;28;20038;-66
2022/11/04 05:55:25;;;;;;;16.25;3.33;;;;;;;8.21;100.00;101189.97;5033880;28;20050;-66
2022/11/04 05:57:51;;;;;;;12.20;3.72;;;;;;;8.15;100.00;101188.53;5034534;28;20030;-67
2022/11/04 06:00:17;;;;;;;14.13;3.70;;;;;;;8.14;100.00;101179.66;5034448;28;20113;-67
2022/11/04 06:02:44;;;;;;;19.63;4.15;;;;;;;8.14;100.00;101187.69;5034350;28;20049;-66
2022/11/04 06:05:10;;;;;;;17.67;3.17;;;;;;;8.14;100.00;101189.50;5034308;28;20441;-67
2022/11/04 06:07:35;;;;;;;20.85;4.15;;;;;;;8.14;100.00;101187.69;5032759;28;20071;-67
2022/11/04 06:10:01;;;;;;;18.25;3.95;;;;;;;8.11;100.00;101184.34;5032401;28;20017;-68
2022/11/04 06:12:27;;;;;;;13.68;3.38;;;;;;;8.15;100.00;101194.75;5034128;28;20490;-66
2022/11/04 06:14:52;;;;;;;11.90;3.45;;;;;;;8.12;100.00;101197.63;5034287;28;20410;-66
2022/11/04 06:17:21;;;;;;;19.00;3.45;;;;;;;8.09;100.00;101189.81;5033427;28;20375;-67
2022/11/04 06:19:48;;;;;;;16.88;3.13;;;;;;;8.11;100.00;101184.34;5033673;28;20040;-66
2022/11/04 06:22:16;;;;;;;14.45;3.58;;;;;;;8.14;100.00;101192.19;5032286;28;20121;-67
2022/11/04 06:24:42;;;;;;;13.40;3.40;;;;;;;8.17;100.00;101193.81;5032106;28;20506;-66
2022/11/04 06:27:09;;;;;;;14.25;3.40;;;;;;;8.19;100.00;101194.56;5031953;28;20465;-67
2022/11/04 06:29:39;;;;;;;12.85;3.05;;;;;;;8.19;100.00;101191.88;5033899;28;20045;-66
2022/11/04 06:32:09;;;;;;;11.80;2.95;;;;;;;8.29;100.00;101193.03;5033394;28;20029;-66
2022/11/04 06:34:36;;;;;;;12.82;2.47;;;;;;;8.36;100.00;101183.66;5033238;28;20017;-66
2022/11/04 06:37:02;;;;;;;19.90;3.63;;;;;;;8.35;100.00;101180.13;5031536;28;20437;-68
2022/11/04 06:39:28;;;;;;;14.13;2.85;;;;;;;8.41;100.00;101186.94;5032893;28;20128;-66
2022/11/04 06:41:54;;;;;;;13.98;3.30;;;;;;;8.44;100.00;101184.06;5033266;28;20565;-69
2022/11/04 06:44:19;;;;;;;11.73;3.17;;;;;;;8.51;100.00;101190.72;5032917;28;20092;-66
2022/11/04 06:46:45;;;;;;;13.40;2.75;;;;;;;8.55;100.00;101183.34;5032823;28;20037;-67
2022/11/04 06:49:19;;;;;;;15.63;2.90;;;;;;;8.55;100.00;101180.66;5030576;28;20107;-67
2022/11/04 06:51:45;;;;;;;15.77;2.78;;;;;;;8.58;100.00;101189.38;5030857;28;20039;-67
2022/11/04 06:54:11;;;;;;;12.43;2.38;;;;;;;8.59;100.00;101191.09;5030943;28;20168;-67
2022/11/04 06:56:38;;;;;;;13.80;3.35;;;;;;;8.61;100.00;101199.03;5032666;28;20171;-66
2022/11/04 06:59:03;;;;;;;10.23;2.42;;;;;;;8.67;100.00;101188.75;5031569;28;20123;-67
2022/11/04 07:01:32;;;;;;;17.50;2.60;;;;;;;8.65;100.00;101193.38;5030813;28;20112;-67
2022/11/04 07:04:00;;;;;;;6.60;1.85;;;;;;;8.62;99.71;101188.22;5031740;28;20032;-67
2022/11/04 07:06:28;;;;;;;10.20;2.65;;;;;;;8.66;99.45;101192.41;5032304;28;20033;-67
2022/11/04 07:08:56;;;;;;;17.23;3.15;;;;;;;8.67;98.67;101199.50;5031338;28;20034;-67
2022/11/04 07:11:23;;;;;;;11.60;2.20;;;;;;;8.67;98.54;101191.44;5032818;28;20509;-65
2022/11/04 07:13:49;;;;;;;10.80;2.08;;;;;;;8.74;98.04;101198.16;5032477;28;20031;-67
2022/11/04 07:16:16;;;;;;;17.65;2.60;;;;;;;8.76;97.01;101203.41;5030936;28;20060;-66
2022/11/04 07:18:42;;;;;;;9.07;1.60;;;;;;;8.82;96.68;101202.13;5030616;28;20055;-67
2022/11/04 07:21:08;;;;;;;9.38;2.28;;;;;;;8.80;96.22;101204.91;5032059;28;20064;-66
2022/11/04 07:23:34;;;;;;;7.15;1.65;;;;;;;8.81;95.61;101195.06;5031471;28;20033;-66
2022/11/04 07:26:01;;;;;;;13.45;2.75;;;;;;;8.87;95.56;101197.31;5031860;28;20021;-67
2022/11/04 07:28:26;;;;;;;8.90;1.73;;;;;;;8.96;94.96;101191.34;5030510;28;20398;-66
2022/11/04 07:30:56;;;;;;;8.50;1.92;;;;;;;9.03;93.94;101200.69;5031732;28;20029;-66
2022/11/04 07:33:22;;;;;;;12.20;1.73;;;;;;;9.05;93.42;101206.81;5031965;28;20025;-67
2022/11/04 07:35:48;;;;;;;10.15;2.03;;;;;;;9.07;93.39;101207.59;5031989;28;20378;-67
2022/11/04 07:38:14;;;;;;;7.63;1.73;;;;;;;9.07;93.54;101202.25;5030738;28;20104;-67
2022/11/04 07:40:39;;;;;;;12.13;1.90;;;;;;;9.08;93.27;101198.59;5031082;28;20482;-66
2022/11/04 07:43:05;;;;;;;12.88;2.65;;;;;;;9.10;93.71;101207.41;5030137;28;20111;-67
2022/11/04 07:45:31;;;;;;;10.40;1.95;;;;;;;9.18;92.92;101205.03;5030608;28;20064;-66
2022/11/04 07:47:57;;;;;;;8.50;2.17;;;;;;;9.16;93.15;101206.97;5030088;28;20092;-67
2022/11/04 07:50:23;;;;;;;10.75;1.95;;;;;;;9.23;93.03;101196.69;5030727;28;20034;-68
2022/11/04 07:52:49;;;;;;;9.60;1.73;;;;;;;9.21;92.89;101199.47;5032324;28;20061;-66
2022/11/04 07:55:17;;;;;;;14.38;2.70;;;;;;;9.24;92.27;101204.66;5031642;28;20406;-66
2022/11/04 07:57:44;;;;;;;10.90;2.05;;;;;;;9.31;92.49;101205.09;5031470;28;20120;-67
2022/11/04 08:00:10;;;;;;;11.43;2.28;;;;;;;9.36;92.14;101208.31;5031578;28;20034;-66
2022/11/04 08:02:36;;;;;;;14.95;2.72;;;;;;;9.34;91.91;101212.91;5031383;28;20132;-68
2022/11/04 08:05:05;;;;;;;12.55;2.45;;;;;;;9.37;92.10;101215.41;5031318;28;20087;-66
2022/11/04 08:07:31;;;;;;;11.73;2.33;;;;;;;9.42;92.05;101209.75;5031697;28;20100;-67
2022/11/04 08:09:56;;;;;;;7.88;2.70;;;;;;;9.45;91.99;101206.84;5031668;28;20030;-67
2022/11/04 08:12:23;;;;;;;13.93;2.05;;;;;;;9.44;91.74;101202.44;5029527;28;20033;-66
2022/11/04 08:14:49;;;;;;;9.77;2.47;;;;;;;9.49;91.68;101202.97;5031733;28;20056;-67
2022/11/04 08:17:16;;;;;;;12.10;2.00;;;;;;;9.55;91.61;101210.59;5029669;28;20022;-68
2022/11/04 08:20:04;;;;;;;7.20;1.30;;;;;;;9.56;90.99;101215.00;5031632;28;20026;-68
2022/11/04 08:22:30;;;;;;;8.10;1.20;;;;;;;9.61;90.30;101212.88;5042292;23;20474;-72
2022/11/04 08:24:55;;;;;;;13.05;2.10;;;;;;;9.65;89.59;101203.63;5029918;28;20057;-72
2022/11/04 08:27:22;;;;;;;13.43;2.88;;;;;;;9.66;89.33;101208.03;5031022;28;20045;-73
2022/11/04 08:29:47;;;;;;;11.95;2.17;;;;;;;9.78;88.90;101204.50;5031399;28;20037;-74
2022/11/04 08:32:13;;;;;;;13.00;1.95;;;;;;;9.84;87.45;101204.06;5031836;28;20033;-72
2022/11/04 08:34:39;;;;;;;9.00;1.95;;;;;;;9.86;87.10;101198.59;5031929;28;20036;-71
2022/11/04 08:37:04;;;;;;;11.00;2.20;;;;;;;9.86;87.43;101202.13;5030206;28;20018;-71
2022/11/04 08:39:30;;;;;;;9.45;1.63;;;;;;;9.96;87.24;101191.63;5032729;28;20029;-71
2022/11/04 08:41:55;;;;;;;9.55;1.67;;;;;;;10.10;86.12;101187.97;5030447;28;20033;-72
2022/11/04 08:44:22;;;;;;;8.65;1.80;;;;;;;10.15;85.07;101185.78;5030333;28;20040;-73
2022/11/04 08:46:48;;;;;;;6.75;1.45;;;;;;;10.29;84.74;101187.53;5029599;28;20561;-72
2022/11/04 08:49:14;;;;;;;4.80;1.20;;;;;;;10.45;84.43;101183.63;5029684;28;20065;-72
2022/11/04 08:51:45;;;;;;;8.45;2.10;;;;;;;10.52;83.65;101189.38;5029770;28;20025;-71
2022/11/04 08:54:11;;;;;;;7.40;1.75;;;;;;;10.59;82.92;101181.75;5031551;28;20030;-73
2022/11/04 08:56:38;;;;;;;10.65;2.67;;;;;;;10.55;83.23;101179.25;5031630;28;20036;-71
2022/11/04 08:59:05;;;;;;;9.70;2.40;;;;;;;10.73;82.61;101181.56;5031194;28;20037;-73
2022/11/04 09:01:35;;;;;;;9.15;1.88;;;;;;;10.72;82.10;101180.72;5031104;28;20084;-74
2022/11/04 09:04:01;;;;;;;14.65;2.40;;;;;;;10.58;82.01;101177.31;5029913;28;20440;-72
2022/11/04 09:06:30;;;;;;;10.95;3.38;;;;;;;10.73;82.92;101176.19;5031086;28;20400;-73
2022/11/04 09:09:01;;;;;;;10.90;2.47;;;;;;;10.62;82.04;101177.00;5031223;28;20369;-69
2022/11/04 09:11:27;;;;;;;9.05;1.55;;;;;;;10.79;81.33;101170.38;5031013;28;20033;-71
2022/11/04 09:13:52;;;;;;;9.48;1.75;;;;;;;10.82;81.12;101170.13;5033375;28;20040;-71
2022/11/04 09:16:18;;;;;;;8.50;1.65;;;;;;;11.03;80.19;101168.53;5034571;28;20030;-71
2022/11/04 09:18:44;;;;;;;12.63;2.38;;;;;;;10.86;80.22;101171.63;5034319;28;20045;-71
2022/11/04 09:21:10;;;;;;;8.93;2.10;;;;;;;10.94;80.23;101171.91;5063306;28;20068;-72
2022/11/04 09:23:36;;;;;;;5.88;1.40;;;;;;;11.07;79.93;101170.00;5063322;28;20132;-72
2022/11/04 09:26:08;;;;;;;9.93;1.77;;;;;;;10.94;80.27;101169.22;5034594;28;20033;-70
2022/11/04 09:28:34;;;;;;;12.13;2.25;;;;;;;10.80;80.27;101178.31;5033869;28;20060;-71
2022/11/04 09:31:04;;;;;;;10.88;1.95;;;;;;;10.98;81.18;101181.47;5034822;28;20409;-70
2022/11/04 09:33:30;;;;;;;8.82;1.98;;;;;;;10.99;79.98;101183.19;5033516;28;20052;-71
2022/11/04 09:35:56;;;;;;;15.65;2.28;;;;;;;10.97;79.95;101179.75;5032767;28;20477;-69
2022/11/04 09:38:23;;;;;;;10.13;1.80;;;;;;;11.05;79.87;101177.31;5034263;28;20040;-72
2022/11/04 09:40:49;;;;;;;10.65;2.50;;;;;;;11.19;79.93;101189.75;5034854;28;20029;-71
2022/11/04 09:43:31;;;;;;;12.23;2.08;;;;;;;11.12;79.63;101178.59;5034285;28;20033;-69
2022/11/04 09:45:58;;;;;;;11.95;2.10;;;;;;;10.81;80.16;101176.50;5034055;28;20059;-70
2022/11/04 09:48:30;;;;;;;13.13;3.17;;;;;;;11.07;79.84;101180.75;5034316;28;20034;-70
2022/11/04 09:51:05;;;;;;;9.93;2.13;;;;;;;11.19;79.14;101183.50;5032093;28;20029;-71
2022/11/04 09:53:48;;;;;;;11.57;2.05;;;;;;;10.90;79.41;101183.00;5034258;28;20021;-72
2022/11/04 09:56:24;;;;;;;8.57;2.63;;;;;;;10.96;77.61;101204.94;5033965;28;20033;-70
2022/11/04 09:58:51;;;;;;;10.23;1.92;;;;;;;10.92;78.05;101183.75;5034033;28;20025;-69
2022/11/04 10:01:39;;;;;;;6.40;1.00;;;;;;;11.09;75.95;101194.97;5032610;28;20401;-70
2022/11/04 10:04:24;;;;;;;12.35;2.00;;;;;;;10.67;78.46;101187.41;5021574;28;20040;-69
2022/11/04 10:07:16;;;;;;;8.68;2.72;;;;;;;10.79;78.01;101181.13;5033687;28;20048;-70
2022/11/04 10:09:59;;;;;;;9.68;2.85;;;;;;;10.76;77.59;101187.59;5034002;28;20033;-71
2022/11/04 10:13:00;;;;;;;8.60;1.45;;;;;;;10.89;76.12;101200.97;5032725;28;20033;-70
2022/11/04 10:15:38;;;;;;;4.95;1.30;;;;;;;10.58;77.32;101196.13;5032632;28;20088;-69
2022/11/04 10:18:13;;;;;;;4.85;1.25;;;;;;;10.88;76.56;101193.88;5033797;28;20068;-70
2022/11/04 10:21:00;;;;;;;10.75;2.20;;;;;;;10.85;76.07;101181.53;5033366;28;20025;-69
2022/11/04 10:23:34;;;;;;;6.65;1.38;;;;;;;11.51;73.68;101189.13;5033303;28;20124;-69
2022/11/04 10:26:32;;;;;;;8.82;2.10;;;;;;;11.79;71.25;101198.66;5032028;28;20052;-71
2022/11/04 10:29:04;;;;;;;5.93;1.58;;;;;;;11.03;73.93;101189.19;5032413;28;20037;-67
2022/11/04 10:31:30;;;;;;;8.13;1.63;;;;;;;10.99;73.88;101193.09;5033205;28;20029;-69
2022/11/04 10:34:07;;;;;;;6.65;0.80;;;;;;;11.08;73.12;101171.72;5033346;28;20029;-69
2022/11/04 10:36:35;;;;;;;3.13;0.95;;;;;;;11.02;71.93;101182.94;5030429;28;20025;-69
2022/11/04 10:39:16;;;;;;;8.85;2.25;;;;;;;10.86;73.32;101198.53;5031569;28;20396;-70
2022/11/04 10:41:44;;;;;;;7.68;2.03;;;;;;;10.69;73.48;101205.16;5031698;28;20338;-70
2022/11/04 10:44:19;;;;;;;7.63;1.02;;;;;;;10.89;72.36;101182.16;5033481;28;20088;-69
2022/11/04 10:47:01;;;;;;;;;;;;;;;10.93;72.07;101191.72;5033788;28;20123;-71
2022/11/04 10:49:44;;;;;;;6.95;0.93;;;;;;;10.90;72.21;101194.63;5033152;28;20377;-69
2022/11/04 10:52:10;;;;;;;6.85;1.23;;;;;;;10.88;72.40;101199.25;5031866;28;20049;-70
2022/11/04 10:54:45;;;;;;;8.68;1.42;;;;;;;10.96;72.49;101193.31;5033403;28;20040;-69
2022/11/04 10:57:12;;;;;;;;;;;;;;;10.88;73.87;101196.56;5033194;28;20503;-68
2022/11/04 10:59:46;;;;;;;6.30;1.40;;;;;;;10.88;73.80;101185.81;5032819;28;20038;-68
2022/11/04 11:02:12;;;;;;;;;;;;;;;10.91;73.23;101187.41;5031411;28;20129;-69
2022/11/04 11:04:43;;;;;;;8.10;1.40;;;;;;;10.87;73.07;101175.16;5032839;28;20073;-69
2022/11/04 11:07:11;;;;;;;4.72;1.38;;;;;;;10.87;73.78;101196.69;5031473;28;20052;-70
2022/11/04 11:09:39;;;;;;;14.02;2.58;;;;;;;10.61;74.53;101177.97;5031117;28;20489;-67
2022/11/04 11:12:39;;;;;;;6.95;1.35;;;;;;;10.44;75.03;101192.66;5030465;28;20417;-68
2022/11/04 11:15:23;;;;;;;8.10;1.60;;;;;;;10.49;75.11;101203.91;5063658;28;20128;-66
2022/11/04 11:17:56;;;;;;;5.00;1.50;;;;;;;10.67;74.31;101192.78;5032477;28;20389;-68
2022/11/04 11:20:24;;;;;;;10.77;1.65;;;;;;;10.67;74.36;101187.41;5064173;28;20052;-70
2022/11/04 11:22:50;;;;;;;6.30;1.77;;;;;;;10.59;75.54;101192.50;5032712;28;20175;-68
2022/11/04 11:25:21;;;;;;;21.67;3.17;;;;;;;10.65;74.80;101182.16;5032388;28;20121;-69
2022/11/04 11:27:53;;;;;;;8.48;2.13;;;;;;;10.39;75.57;101194.78;5030567;28;20044;-68
2022/11/04 11:30:28;;;;;;;14.48;2.35;;;;;;;10.57;75.35;101200.66;5032186;28;20022;-69
2022/11/04 11:33:15;;;;;;;8.48;2.20;;;;;;;10.43;76.28;101201.69;5031744;28;20033;-68
2022/11/04 11:35:50;;;;;;;9.45;1.55;;;;;;;10.65;75.92;101194.72;5032168;28;20040;-68
2022/11/04 11:38:21;;;;;;;9.88;2.35;;;;;;;10.71;74.10;101172.75;5031967;28;20132;-70
2022/11/04 11:40:49;;;;;;;4.40;1.02;;;;;;;10.66;74.15;101170.41;5030530;28;20029;-69
2022/11/04 11:43:28;;;;;;;9.35;1.92;;;;;;;10.57;73.89;101176.47;5030950;28;20045;-69
2022/11/04 11:45:56;;;;;;;10.45;2.60;;;;;;;10.41;74.49;101179.44;5030426;28;20121;-68
2022/11/04 11:48:42;;;;;;;8.98;1.15;;;;;;;10.50;74.53;101173.38;5030448;28;20029;-68
2022/11/04 11:51:14;;;;;;;7.22;1.45;;;;;;;10.53;74.08;101186.59;5030172;28;20025;-68
2022/11/04 11:54:01;;;;;;;11.27;2.38;;;;;;;10.56;74.96;101174.75;5031791;28;20060;-69
2022/11/04 11:56:42;;;;;;;11.48;1.45;;;;;;;10.64;74.90;101176.88;5030555;28;20037;-69
2022/11/04 11:59:33;;;;;;;7.47;2.05;;;;;;;10.54;75.57;101182.94;5029924;28;20037;-68
2022/11/04 12:02:32;;;;;;;10.55;2.42;;;;;;;10.53;75.73;101180.34;5024367;28;20072;-70
2022/11/04 12:04:59;;;;;;;14.80;1.48;;;;;;;10.43;76.19;101169.44;5030307;28;20091;-69
2022/11/04 12:07:50;;;;;;;9.05;1.33;;;;;;;10.41;76.38;101165.09;5029833;28;20053;-70
2022/11/04 12:10:18;;;;;;;12.93;2.38;;;;;;;10.39;76.76;101167.91;5031735;28;20473;-67